Time;durP1;ratioP1;P1;durP2;ratioP2;P2;SDS_P1;SDS_P2;PMS_P1;PMS_P2;Temp;Humidity;BMP_temperature;BMP_pressure;BME280_temperature;BME280_humidity;BME280_pressure;Samples;Min_cycle;Max_cycle;Signal;HPM_P1;HPM_P2
2023/09/12 00:02:01;;;;;;;29.58;26.48;;;;;;;18.88;100.00;101116.56;5035275;28;20342;-66
2023/09/12 00:04:27;;;;;;;32.13;28.40;;;;;;;18.93;100.00;101119.19;5048380;28;20086;-67
2023/09/12 00:06:53;;;;;;;29.08;26.08;;;;;;;18.98;100.00;101119.22;5030336;28;20045;-66
2023/09/12 00:09:18;;;;;;;30.40;26.95;;;;;;;19.00;100.00;101128.84;5040893;28;20031;-66
2023/09/12 00:11:43;;;;;;;33.05;28.52;;;;;;;19.04;100.00;101124.47;5048090;28;20044;-66
2023/09/12 00:14:09;;;;;;;31.70;26.98;;;;;;;19.08;100.00;101123.59;5047968;28;20501;-66
2023/09/12 00:16:34;;;;;;;28.63;25.58;;;;;;;19.08;100.00;101118.34;5034404;28;20395;-66
2023/09/12 00:19:00;;;;;;;28.95;25.85;;;;;;;19.09;100.00;101125.34;5048222;28;20057;-66
2023/09/12 00:21:25;;;;;;;28.55;25.25;;;;;;;19.11;100.00;101118.34;5046603;28;20028;-66
2023/09/12 00:23:50;;;;;;;27.65;24.83;;;;;;;19.09;100.00;101125.34;5047249;28;20066;-66
2023/09/12 00:26:16;;;;;;;26.65;23.77;;;;;;;19.07;100.00;101121.84;5046734;28;20037;-66
2023/09/12 00:28:41;;;;;;;26.90;24.05;;;;;;;19.03;100.00;101125.34;5047580;28;20837;-66
2023/09/12 00:31:06;;;;;;;27.40;24.52;;;;;;;19.00;100.00;101128.84;5045677;28;20017;-65
2023/09/12 00:33:31;;;;;;;27.05;24.02;;;;;;;18.98;100.00;101127.94;5047674;28;20136;-66
2023/09/12 00:35:58;;;;;;;26.23;23.55;;;;;;;18.93;100.00;101124.44;5045411;28;20021;-66
2023/09/12 00:38:23;;;;;;;27.58;24.13;;;;;;;18.89;100.00;101128.81;5046478;28;20021;-66
2023/09/12 00:40:48;;;;;;;27.90;25.00;;;;;;;18.88;100.00;101128.81;5045319;28;20027;-65
2023/09/12 00:43:14;;;;;;;26.42;23.58;;;;;;;18.84;100.00;101127.94;5047001;28;20470;-66
2023/09/12 00:45:41;;;;;;;26.02;23.17;;;;;;;18.79;100.00;101129.69;5044686;28;20040;-67
2023/09/12 00:48:07;;;;;;;27.90;23.30;;;;;;;18.71;100.00;101125.28;5043615;28;20037;-66
2023/09/12 00:50:34;;;;;;;26.02;23.33;;;;;;;18.68;100.00;101130.53;5045113;28;20027;-66
2023/09/12 00:53:00;;;;;;;25.55;22.65;;;;;;;18.65;100.00;101113.91;5046977;28;20029;-66
2023/09/12 00:55:26;;;;;;;25.35;22.90;;;;;;;18.65;100.00;101119.16;5044223;28;20078;-65
2023/09/12 00:57:53;;;;;;;26.30;23.50;;;;;;;18.64;100.00;101115.63;5035971;28;20021;-66
2023/09/12 01:00:18;;;;;;;26.35;23.65;;;;;;;18.61;100.00;101107.75;5031492;28;20021;-66
2023/09/12 01:02:46;;;;;;;26.17;22.90;;;;;;;18.60;100.00;101116.53;5037080;28;20493;-66
2023/09/12 01:05:13;;;;;;;26.48;23.92;;;;;;;18.60;100.00;101117.38;5040066;28;20381;-66
2023/09/12 01:07:38;;;;;;;26.23;23.48;;;;;;;18.62;100.00;101114.75;5027891;28;20025;-66
2023/09/12 01:10:05;;;;;;;25.08;22.38;;;;;;;18.65;100.00;101114.78;5028027;28;20032;-66
2023/09/12 01:12:31;;;;;;;29.63;22.85;;;;;;;18.63;100.00;101116.53;5028245;28;20493;-66
2023/09/12 01:14:56;;;;;;;26.48;23.35;;;;;;;18.59;100.00;101104.25;5027886;28;20025;-66
2023/09/12 01:17:23;;;;;;;24.77;22.15;;;;;;;18.56;100.00;101107.75;5027817;28;20109;-65
2023/09/12 01:19:48;;;;;;;30.50;22.77;;;;;;;18.56;100.00;101109.50;5026933;28;20029;-65
2023/09/12 01:22:32;;;;;;;28.77;23.27;;;;;;;18.52;100.00;101110.34;5027923;28;20386;-64
2023/09/12 01:25:18;;;;;;;24.88;22.08;;;;;;;18.46;100.00;101104.22;5027505;28;20492;-66
2023/09/12 01:27:50;;;;;;;23.38;20.88;;;;;;;18.44;100.00;101100.72;5027635;28;20061;-66
2023/09/12 01:30:20;;;;;;;26.67;21.67;;;;;;;18.41;100.00;101095.47;5038831;28;20405;-65
2023/09/12 01:32:46;;;;;;;25.85;22.55;;;;;;;18.39;100.00;101094.56;5029295;28;20025;-66
2023/09/12 01:35:11;;;;;;;23.80;21.35;;;;;;;18.40;100.00;101103.31;5027955;28;20032;-66
2023/09/12 01:37:36;;;;;;;27.75;22.33;;;;;;;18.34;100.00;101096.31;5045346;28;20016;-65
2023/09/12 01:40:03;;;;;;;26.13;22.65;;;;;;;18.32;100.00;101098.03;5046976;28;20104;-66
2023/09/12 01:42:35;;;;;;;25.38;22.38;;;;;;;18.30;100.00;101103.28;5046783;28;20025;-64
2023/09/12 01:45:01;;;;;;;22.70;19.48;;;;;;;18.31;100.00;101101.56;5044760;28;20372;-66
2023/09/12 01:47:28;;;;;;;23.17;20.52;;;;;;;18.27;100.00;101099.78;5046127;28;20084;-66
2023/09/12 01:49:57;;;;;;;30.25;23.10;;;;;;;18.24;100.00;101098.88;5046732;28;20419;-66
2023/09/12 01:52:24;;;;;;;22.77;20.13;;;;;;;18.21;100.00;101098.00;5045952;28;20044;-66
2023/09/12 01:54:50;;;;;;;21.55;19.35;;;;;;;18.19;100.00;101095.38;5033566;28;20033;-65
2023/09/12 01:57:17;;;;;;;23.65;19.63;;;;;;;18.17;100.00;101102.34;5027334;28;20017;-66
2023/09/12 01:59:42;;;;;;;23.13;20.15;;;;;;;18.12;100.00;101104.03;5039450;28;20029;-66
2023/09/12 02:02:07;;;;;;;22.58;20.17;;;;;;;18.10;100.00;101103.16;5046066;28;20260;-66
2023/09/12 02:04:33;;;;;;;23.67;20.63;;;;;;;18.08;100.00;101102.31;5047262;28;20033;-66
2023/09/12 02:06:58;;;;;;;24.20;21.10;;;;;;;18.04;100.00;101095.28;5033227;28;20037;-66
2023/09/12 02:09:24;;;;;;;26.85;23.17;;;;;;;17.98;100.00;101091.75;5047230;28;20028;-66
2023/09/12 02:11:50;;;;;;;23.67;21.23;;;;;;;17.99;100.00;101088.25;5046424;28;20032;-66
2023/09/12 02:14:17;;;;;;;24.15;21.70;;;;;;;17.96;100.00;101098.75;5045938;28;20614;-65
2023/09/12 02:16:43;;;;;;;23.15;20.80;;;;;;;17.95;100.00;101091.72;5046369;28;20021;-66
2023/09/12 02:19:08;;;;;;;22.50;20.20;;;;;;;17.92;100.00;101094.34;5046535;28;20017;-65
2023/09/12 02:21:33;;;;;;;22.85;20.73;;;;;;;17.88;100.00;101092.59;5044571;28;20033;-65
2023/09/12 02:23:58;;;;;;;23.25;21.00;;;;;;;17.87;100.00;101099.56;5046182;28;20021;-66
2023/09/12 02:26:24;;;;;;;23.52;21.13;;;;;;;17.86;100.00;101102.19;5044873;28;20053;-66
2023/09/12 02:28:49;;;;;;;24.77;22.23;;;;;;;17.81;100.00;101098.66;5048842;28;20029;-66
2023/09/12 02:31:14;;;;;;;24.63;22.23;;;;;;;17.79;100.00;101100.38;5048454;28;20013;-66
2023/09/12 02:33:40;;;;;;;24.73;22.33;;;;;;;17.75;100.00;101105.59;5050047;28;20025;-66
2023/09/12 02:36:06;;;;;;;23.80;21.30;;;;;;;17.70;100.00;101112.53;5049325;28;20021;-65
2023/09/12 02:38:32;;;;;;;21.88;19.77;;;;;;;17.68;100.00;101108.19;5049604;28;20099;-66
2023/09/12 02:40:57;;;;;;;21.77;19.48;;;;;;;17.65;100.00;101106.41;5048165;28;20048;-66
2023/09/12 02:43:23;;;;;;;22.58;20.40;;;;;;;17.61;100.00;101102.88;5049799;28;20064;-66
2023/09/12 02:45:48;;;;;;;21.58;19.38;;;;;;;17.57;100.00;101098.50;5048286;28;20021;-66
2023/09/12 02:48:13;;;;;;;23.75;21.40;;;;;;;17.55;100.00;101109.84;5049637;28;20021;-66
2023/09/12 02:50:38;;;;;;;25.42;22.83;;;;;;;17.53;100.00;101101.97;5048283;28;20362;-66
2023/09/12 02:53:04;;;;;;;26.23;23.42;;;;;;;17.48;100.00;101101.94;5048880;28;20095;-66
2023/09/12 02:55:29;;;;;;;25.85;23.15;;;;;;;17.47;100.00;101100.16;5048081;28;20044;-64
2023/09/12 02:57:55;;;;;;;27.63;24.00;;;;;;;17.44;100.00;101100.16;5037893;28;20028;-66
2023/09/12 03:00:20;;;;;;;28.73;23.30;;;;;;;17.40;100.00;101096.63;5034399;28;20017;-66
2023/09/12 03:02:45;;;;;;;25.27;22.73;;;;;;;17.39;100.00;101102.75;5049633;28;20025;-66
2023/09/12 03:05:11;;;;;;;23.27;20.88;;;;;;;17.36;100.00;101096.63;5049787;28;20021;-65
2023/09/12 03:07:36;;;;;;;25.48;22.95;;;;;;;17.35;100.00;101102.69;5050001;28;20067;-66
2023/09/12 03:10:01;;;;;;;27.30;24.38;;;;;;;17.33;100.00;101107.94;5048932;28;20029;-66
2023/09/12 03:12:27;;;;;;;27.98;22.33;;;;;;;17.33;100.00;101101.81;5049718;28;20581;-66
2023/09/12 03:14:52;;;;;;;27.08;22.95;;;;;;;17.32;100.00;101105.31;5049232;28;20385;-66
2023/09/12 03:17:17;;;;;;;26.85;24.05;;;;;;;17.30;100.00;101107.03;5050226;28;20152;-66
2023/09/12 03:19:43;;;;;;;24.75;22.10;;;;;;;17.30;100.00;101096.56;5049529;28;20020;-65
2023/09/12 03:22:08;;;;;;;25.02;22.40;;;;;;;17.29;100.00;101085.19;5049095;28;20029;-66
2023/09/12 03:24:33;;;;;;;29.98;23.30;;;;;;;17.30;100.00;101093.94;5048560;28;20079;-66
2023/09/12 03:26:58;;;;;;;26.50;23.80;;;;;;;17.29;100.00;101082.56;5049381;28;20392;-64
2023/09/12 03:29:24;;;;;;;28.30;25.05;;;;;;;17.28;100.00;101079.09;5048929;28;20082;-66
2023/09/12 03:31:49;;;;;;;29.75;24.75;;;;;;;17.26;100.00;101074.69;5049426;28;20067;-65
2023/09/12 03:34:14;;;;;;;27.55;24.13;;;;;;;17.26;100.00;101082.56;5049115;28;20017;-66
2023/09/12 03:36:40;;;;;;;26.20;23.25;;;;;;;17.25;100.00;101078.19;5048875;28;20431;-65
2023/09/12 03:39:08;;;;;;;27.55;24.17;;;;;;;17.24;100.00;101076.41;5048401;28;20021;-64
2023/09/12 03:41:34;;;;;;;26.10;23.40;;;;;;;17.24;100.00;101079.94;5040123;28;20029;-66
2023/09/12 03:43:59;;;;;;;27.50;24.10;;;;;;;17.22;100.00;101079.03;5042048;28;20048;-64
2023/09/12 03:46:25;;;;;;;24.17;21.67;;;;;;;17.21;100.00;101085.16;5029347;28;20025;-65
2023/09/12 03:48:50;;;;;;;23.40;20.88;;;;;;;17.22;100.00;101076.41;5032984;28;20059;-66
2023/09/12 03:51:16;;;;;;;24.35;21.38;;;;;;;17.22;100.00;101073.78;5049135;28;20024;-66
2023/09/12 03:53:41;;;;;;;26.90;20.35;;;;;;;17.18;100.00;101082.47;5032695;28;20033;-65
2023/09/12 03:56:07;;;;;;;26.25;21.45;;;;;;;17.17;100.00;101075.50;5029588;28;20026;-66
2023/09/12 03:58:32;;;;;;;26.65;22.98;;;;;;;17.18;100.00;101082.47;5028824;28;20473;-66
2023/09/12 04:00:57;;;;;;;21.38;19.27;;;;;;;17.21;100.00;101071.16;5029688;28;20389;-66
2023/09/12 04:03:23;;;;;;;23.27;20.77;;;;;;;17.20;100.00;101070.28;5029695;28;20017;-66
2023/09/12 04:05:48;;;;;;;20.65;18.65;;;;;;;17.20;100.00;101077.28;5029537;28;20053;-66
2023/09/12 04:08:13;;;;;;;21.42;19.15;;;;;;;17.17;100.00;101070.25;5029755;28;20468;-66
2023/09/12 04:10:39;;;;;;;20.80;18.75;;;;;;;17.18;100.00;101073.78;5029483;28;20465;-66
2023/09/12 04:13:04;;;;;;;19.00;17.20;;;;;;;17.17;100.00;101072.88;5028871;28;20040;-65
2023/09/12 04:15:29;;;;;;;17.70;16.08;;;;;;;17.15;100.00;101072.88;5029297;28;20034;-65
2023/09/12 04:17:54;;;;;;;17.08;15.65;;;;;;;17.13;100.00;101063.25;5029183;28;20195;-66
2023/09/12 04:20:20;;;;;;;19.30;17.42;;;;;;;17.12;100.00;101066.72;5028934;28;20853;-66
2023/09/12 04:22:46;;;;;;;19.52;17.48;;;;;;;17.10;100.00;101063.19;5030162;28;20029;-66
2023/09/12 04:25:11;;;;;;;19.50;17.27;;;;;;;17.09;100.00;101064.06;5029829;28;20048;-66
2023/09/12 04:27:37;;;;;;;21.80;17.48;;;;;;;17.08;100.00;101063.19;5028132;28;20021;-66
2023/09/12 04:30:03;;;;;;;20.58;18.48;;;;;;;17.08;100.00;101071.03;5029562;28;20030;-65
2023/09/12 04:32:29;;;;;;;20.27;18.20;;;;;;;17.08;100.00;101067.53;5028316;28;20044;-66
2023/09/12 04:34:54;;;;;;;22.50;19.33;;;;;;;17.09;100.00;101066.69;5028759;28;20021;-66
2023/09/12 04:37:19;;;;;;;20.98;18.88;;;;;;;17.08;100.00;101080.63;5028600;28;20076;-66
2023/09/12 04:39:45;;;;;;;24.15;21.75;;;;;;;17.09;100.00;101080.63;5028498;28;20033;-66
2023/09/12 04:42:10;;;;;;;23.85;21.35;;;;;;;17.11;100.00;101084.19;5028262;28;20096;-66
2023/09/12 04:44:36;;;;;;;27.10;22.63;;;;;;;17.15;100.00;101085.09;5029156;28;20086;-66
2023/09/12 04:47:02;;;;;;;27.10;24.27;;;;;;;17.19;100.00;101081.63;5028148;28;20133;-66
2023/09/12 04:49:28;;;;;;;26.05;23.38;;;;;;;17.24;100.00;101084.28;5037075;28;20071;-66
2023/09/12 04:51:53;;;;;;;30.92;23.80;;;;;;;17.26;100.00;101085.16;5046591;28;20028;-66
2023/09/12 04:54:18;;;;;;;28.20;23.67;;;;;;;17.25;100.00;101079.03;5047406;28;20487;-65
2023/09/12 04:56:44;;;;;;;31.17;24.45;;;;;;;17.27;100.00;101085.19;5046125;28;20025;-66
2023/09/12 04:59:09;;;;;;;29.48;24.75;;;;;;;17.24;100.00;101087.78;5028096;28;20385;-66
2023/09/12 05:01:34;;;;;;;27.67;24.83;;;;;;;17.20;100.00;101091.22;5028397;28;20473;-65
2023/09/12 05:03:59;;;;;;;28.23;25.23;;;;;;;17.16;100.00;101090.31;5027808;28;20040;-66
2023/09/12 05:06:25;;;;;;;27.35;24.55;;;;;;;17.14;100.00;101096.44;5026492;28;20502;-64
2023/09/12 05:08:50;;;;;;;25.65;22.95;;;;;;;17.14;100.00;101092.06;5026388;28;20113;-66
2023/09/12 05:11:15;;;;;;;30.05;24.27;;;;;;;17.12;100.00;101088.56;5026338;28;20519;-66
2023/09/12 05:13:41;;;;;;;28.30;25.33;;;;;;;17.11;100.00;101092.03;5026165;28;20083;-66
2023/09/12 05:16:06;;;;;;;27.20;24.25;;;;;;;17.12;100.00;101087.69;5026815;28;20021;-64
2023/09/12 05:18:31;;;;;;;32.63;25.02;;;;;;;17.13;100.00;101094.66;5039492;28;20389;-66
2023/09/12 05:20:57;;;;;;;28.85;25.70;;;;;;;17.15;100.00;101092.94;5041311;28;20029;-66
2023/09/12 05:23:22;;;;;;;28.65;25.55;;;;;;;17.15;100.00;101092.94;5047549;28;20025;-66
2023/09/12 05:25:47;;;;;;;27.98;24.67;;;;;;;17.17;100.00;101091.22;5046353;28;20021;-66
2023/09/12 05:28:15;;;;;;;28.27;25.27;;;;;;;17.19;100.00;101092.09;5034385;28;20017;-64
2023/09/12 05:30:42;;;;;;;33.20;26.80;;;;;;;17.21;100.00;101079.91;5046865;28;20024;-66
2023/09/12 05:33:07;;;;;;;28.67;25.65;;;;;;;17.24;100.00;101081.66;5034435;28;20031;-66
2023/09/12 05:35:32;;;;;;;29.27;26.25;;;;;;;17.26;100.00;101074.69;5046958;28;20115;-66
2023/09/12 05:37:57;;;;;;;27.05;24.05;;;;;;;17.26;100.00;101070.34;5047154;28;20473;-66
2023/09/12 05:40:23;;;;;;;31.85;25.13;;;;;;;17.26;100.00;101072.97;5047037;28;20033;-66
2023/09/12 05:42:48;;;;;;;26.50;23.63;;;;;;;17.28;100.00;101068.63;5046949;28;20473;-66
2023/09/12 05:45:13;;;;;;;28.40;25.45;;;;;;;17.29;100.00;101066.84;5046153;28;20628;-63
2023/09/12 05:47:38;;;;;;;34.10;26.20;;;;;;;17.29;100.00;101069.47;5046894;28;20031;-66
2023/09/12 05:50:06;;;;;;;36.75;26.55;;;;;;;17.31;100.00;101072.09;5046952;28;20029;-63
2023/09/12 05:52:32;;;;;;;30.25;25.70;;;;;;;17.33;100.00;101083.47;5014976;28;20034;-66
2023/09/12 05:54:57;;;;;;;28.50;25.42;;;;;;;17.34;100.00;101087.88;5027578;28;20109;-66
2023/09/12 05:57:23;;;;;;;29.67;25.45;;;;;;;17.34;100.00;101083.47;5027667;28;20049;-66
2023/09/12 05:59:48;;;;;;;34.10;25.85;;;;;;;17.35;100.00;101084.38;5040065;28;20028;-66
2023/09/12 06:02:14;;;;;;;34.63;27.27;;;;;;;17.37;100.00;101087.88;5046319;28;20025;-66
2023/09/12 06:04:39;;;;;;;36.03;27.58;;;;;;;17.36;100.00;101092.22;5046363;28;20128;-66
2023/09/12 06:07:05;;;;;;;35.17;27.08;;;;;;;17.39;100.00;101094.00;5013603;28;20468;-66
2023/09/12 06:09:30;;;;;;;34.42;28.08;;;;;;;17.38;100.00;101089.63;5039807;28;20025;-64
2023/09/12 06:11:55;;;;;;;34.42;27.45;;;;;;;17.38;100.00;101098.38;5039888;28;20489;-66
2023/09/12 06:14:21;;;;;;;28.92;25.65;;;;;;;17.41;100.00;101100.16;5039735;28;20517;-66
2023/09/12 06:16:46;;;;;;;30.63;27.38;;;;;;;17.43;100.00;101097.53;5046413;28;20259;-66
2023/09/12 06:19:11;;;;;;;34.42;28.67;;;;;;;17.42;100.00;101096.66;5046865;28;20025;-66
2023/09/12 06:21:37;;;;;;;33.30;28.30;;;;;;;17.41;100.00;101094.91;5046009;28;20477;-64
2023/09/12 06:24:12;;;;;;;29.65;26.38;;;;;;;17.43;100.00;101098.38;5045972;28;20490;-66
2023/09/12 06:26:39;;;;;;;36.38;27.55;;;;;;;17.43;100.00;101103.63;5021900;28;20025;-66
2023/09/12 06:29:04;;;;;;;36.13;27.13;;;;;;;17.46;100.00;101098.44;5045484;28;20223;-66
2023/09/12 06:31:30;;;;;;;30.02;26.63;;;;;;;17.52;100.00;101097.59;5046261;28;20036;-66
2023/09/12 06:33:56;;;;;;;29.13;25.90;;;;;;;17.54;100.00;101092.38;5043358;28;20072;-66
2023/09/12 06:36:23;;;;;;;29.70;26.35;;;;;;;17.56;100.00;101088.03;5045356;28;20067;-66
2023/09/12 06:38:49;;;;;;;32.40;26.95;;;;;;;17.59;100.00;101093.28;5045332;28;20120;-66
2023/09/12 06:41:14;;;;;;;31.85;27.83;;;;;;;17.62;100.00;101103.78;5046361;28;20100;-66
2023/09/12 06:43:39;;;;;;;32.10;26.80;;;;;;;17.63;100.00;101116.00;5045850;28;20032;-64
2023/09/12 06:46:05;;;;;;;34.08;26.10;;;;;;;17.64;100.00;101112.53;5046053;28;20107;-66
2023/09/12 06:48:30;;;;;;;28.67;25.63;;;;;;;17.62;100.00;101119.50;5044391;28;20033;-64
2023/09/12 06:50:55;;;;;;;30.65;27.05;;;;;;;17.64;100.00;101123.00;5045205;28;20029;-66
2023/09/12 06:53:20;;;;;;;30.13;27.08;;;;;;;17.67;100.00;101123.00;5044893;28;20083;-66
2023/09/12 06:55:46;;;;;;;28.52;25.35;;;;;;;17.68;100.00;101123.91;5045634;28;20033;-66
2023/09/12 06:58:12;;;;;;;30.85;25.92;;;;;;;17.70;100.00;101117.78;5032242;28;20167;-66
2023/09/12 07:00:37;;;;;;;31.30;26.52;;;;;;;17.73;100.00;101117.84;5046699;28;20025;-66
2023/09/12 07:03:02;;;;;;;29.63;25.50;;;;;;;17.75;100.00;101126.56;5043471;28;20086;-65
2023/09/12 07:05:28;;;;;;;31.67;26.95;;;;;;;17.75;100.00;101130.94;5033381;28;20036;-66
2023/09/12 07:07:53;;;;;;;30.30;26.67;;;;;;;17.75;100.00;101129.19;5037332;28;20106;-66
2023/09/12 07:10:18;;;;;;;36.33;27.13;;;;;;;17.78;100.00;101130.94;5031819;28;20037;-65
2023/09/12 07:12:44;;;;;;;31.45;27.58;;;;;;;17.82;100.00;101126.59;5036751;28;20465;-66
2023/09/12 07:15:09;;;;;;;32.22;26.48;;;;;;;17.84;100.00;101120.53;5035274;28;20048;-66
2023/09/12 07:17:35;;;;;;;33.90;28.60;;;;;;;17.92;100.00;101128.41;5047963;28;20381;-66
2023/09/12 07:20:00;;;;;;;34.85;27.17;;;;;;;17.98;100.00;101131.09;5049396;28;20029;-66
2023/09/12 07:22:26;;;;;;;34.75;28.05;;;;;;;18.04;100.00;101126.75;5049580;28;20493;-66
2023/09/12 07:24:51;;;;;;;36.50;31.10;;;;;;;18.10;100.00;101121.50;5049252;28;20435;-65
2023/09/12 07:27:16;;;;;;;34.95;31.30;;;;;;;18.15;100.00;101119.81;5048929;28;20033;-64
2023/09/12 07:29:41;;;;;;;39.60;31.67;;;;;;;18.21;100.00;101132.09;5048415;28;20020;-66
2023/09/12 07:32:07;;;;;;;37.03;33.00;;;;;;;18.27;100.00;101133.88;5046251;28;20048;-66
2023/09/12 07:34:33;;;;;;;36.67;30.23;;;;;;;18.32;100.00;101140.00;5042917;28;20028;-66
2023/09/12 07:36:58;;;;;;;34.55;29.23;;;;;;;18.36;100.00;101142.66;5046277;28;20021;-66
2023/09/12 07:39:23;;;;;;;33.90;29.77;;;;;;;18.42;100.00;101149.66;5042764;28;20029;-66
2023/09/12 07:41:49;;;;;;;33.45;27.80;;;;;;;18.49;100.00;101153.22;5045966;28;20537;-65
2023/09/12 07:44:16;;;;;;;32.83;29.40;;;;;;;18.57;100.00;101137.47;5041755;28;20151;-66
2023/09/12 07:46:41;;;;;;;33.78;29.85;;;;;;;18.75;100.00;101141.03;5045045;28;20469;-66
2023/09/12 07:49:09;;;;;;;36.47;30.30;;;;;;;19.03;100.00;101141.97;5039161;28;20032;-66
2023/09/12 07:51:34;;;;;;;31.00;27.30;;;;;;;19.44;100.00;101140.28;5034240;28;20079;-65
2023/09/12 07:53:59;;;;;;;30.75;27.20;;;;;;;19.84;100.00;101138.47;5030462;28;20126;-66
2023/09/12 07:56:24;;;;;;;29.63;26.45;;;;;;;20.20;100.00;101133.13;5031229;28;20590;-65
2023/09/12 07:58:50;;;;;;;26.95;24.25;;;;;;;20.54;100.00;101134.78;5028990;28;20031;-66
2023/09/12 08:01:15;;;;;;;26.33;23.52;;;;;;;20.83;100.00;101140.75;5029198;28;20465;-66
2023/09/12 08:03:42;;;;;;;25.15;22.45;;;;;;;21.31;100.00;101139.56;5041763;28;20037;-65
2023/09/12 08:06:08;;;;;;;25.67;22.90;;;;;;;21.74;100.00;101135.66;5042560;28;20036;-66
2023/09/12 08:08:34;;;;;;;23.52;21.13;;;;;;;22.29;100.00;101143.88;5048546;28;20093;-66
2023/09/12 08:10:59;;;;;;;23.70;21.40;;;;;;;22.48;100.00;101145.41;5048221;28;20530;-66
2023/09/12 08:13:28;;;;;;;23.02;20.63;;;;;;;22.77;100.00;101152.94;5048931;28;20032;-65
2023/09/12 08:15:54;;;;;;;23.50;20.98;;;;;;;22.93;100.00;101157.13;5044704;28;20022;-67
2023/09/12 08:18:20;;;;;;;26.90;20.90;;;;;;;22.90;100.00;101168.63;5018401;28;20447;-66
2023/09/12 08:20:45;;;;;;;23.15;20.92;;;;;;;22.71;100.00;101174.16;5009085;28;20041;-67
2023/09/12 08:23:10;;;;;;;24.20;20.38;;;;;;;22.56;100.00;101180.47;5009199;28;20478;-66
2023/09/12 08:25:35;;;;;;;23.55;21.25;;;;;;;22.39;100.00;101178.06;5009165;28;20128;-67
2023/09/12 08:28:01;;;;;;;24.08;21.50;;;;;;;22.18;100.00;101174.81;5009160;28;20128;-67
2023/09/12 08:30:29;;;;;;;25.80;23.20;;;;;;;21.98;100.00;101177.66;5009375;28;20048;-67
2023/09/12 08:32:54;;;;;;;24.75;22.15;;;;;;;21.70;100.00;101178.75;5009528;28;20515;-67
2023/09/12 08:35:19;;;;;;;25.92;23.17;;;;;;;21.46;100.00;101176.31;5014467;28;20033;-67
2023/09/12 08:37:45;;;;;;;27.85;24.98;;;;;;;21.31;100.00;101181.72;5029033;28;20030;-67
2023/09/12 08:40:10;;;;;;;26.25;23.60;;;;;;;21.23;100.00;101185.28;5029400;28;20029;-66
2023/09/12 08:42:41;;;;;;;27.75;24.83;;;;;;;21.22;100.00;101185.31;5022920;28;20109;-67
2023/09/12 08:45:12;;;;;;;26.27;23.58;;;;;;;21.23;100.00;101184.41;5017826;28;20482;-66
2023/09/12 08:47:40;;;;;;;25.73;23.15;;;;;;;21.23;100.00;101192.31;5012417;28;20684;-66
2023/09/12 08:50:09;;;;;;;23.98;21.50;;;;;;;21.22;100.00;101182.66;5025472;28;20089;-66
2023/09/12 08:52:34;;;;;;;24.45;21.90;;;;;;;21.20;100.00;101184.44;5016851;28;20379;-67
2023/09/12 08:54:59;;;;;;;21.92;19.80;;;;;;;21.24;100.00;101186.16;5009019;28;20034;-66
2023/09/12 08:57:25;;;;;;;24.48;21.88;;;;;;;21.31;100.00;101192.25;5008263;28;20022;-67
2023/09/12 08:59:52;;;;;;;24.52;22.05;;;;;;;21.34;100.00;101190.47;5007979;28;20033;-66
2023/09/12 09:02:17;;;;;;;25.25;22.65;;;;;;;21.32;100.00;101183.47;5006904;28;20029;-66
2023/09/12 09:04:46;;;;;;;25.38;22.63;;;;;;;21.35;100.00;101194.84;5007393;28;20026;-67
2023/09/12 09:07:13;;;;;;;23.27;20.92;;;;;;;21.43;100.00;101202.72;5005651;28;20120;-67
2023/09/12 09:09:38;;;;;;;23.60;21.08;;;;;;;21.52;100.00;101201.75;5005651;28;20478;-66
2023/09/12 09:12:07;;;;;;;24.00;21.52;;;;;;;21.59;100.00;101198.19;5005015;28;20040;-67
2023/09/12 09:14:32;;;;;;;22.08;19.98;;;;;;;21.68;100.00;101191.94;5006093;28;20468;-66
2023/09/12 09:16:58;;;;;;;19.00;16.42;;;;;;;21.80;100.00;101191.00;5006973;28;20122;-67
2023/09/12 09:19:40;;;;;;;19.08;16.77;;;;;;;22.08;100.00;101184.56;5007209;28;20030;-66
2023/09/12 09:22:06;;;;;;;17.48;15.65;;;;;;;22.37;100.00;101171.94;5007325;28;20025;-66
2023/09/12 09:24:31;;;;;;;16.35;14.80;;;;;;;22.64;100.00;101172.50;5008467;28;20036;-65
2023/09/12 09:27:00;;;;;;;16.40;14.88;;;;;;;22.86;100.00;101169.56;5008109;28;20052;-66
2023/09/12 09:29:25;;;;;;;15.48;13.85;;;;;;;23.03;100.00;101170.19;5008611;28;20375;-66
2023/09/12 09:31:52;;;;;;;16.08;14.57;;;;;;;23.21;100.00;101162.88;5008563;28;20083;-66
2023/09/12 09:34:19;;;;;;;17.00;15.20;;;;;;;23.32;100.00;101169.75;5009001;28;20049;-67
2023/09/12 09:36:48;;;;;;;19.40;17.27;;;;;;;23.36;100.00;101166.16;5007863;28;20103;-67
2023/09/12 09:39:13;;;;;;;18.25;16.35;;;;;;;23.34;100.00;101184.69;5008125;28;20038;-66
2023/09/12 09:41:39;;;;;;;19.73;17.30;;;;;;;23.34;100.00;101183.81;5008536;28;20116;-67
2023/09/12 09:44:08;;;;;;;21.70;17.88;;;;;;;23.45;100.00;101181.91;5008203;28;20041;-66
2023/09/12 09:46:35;;;;;;;21.77;19.33;;;;;;;23.51;100.00;101180.94;5007644;28;20490;-67
2023/09/12 09:49:00;;;;;;;23.63;19.35;;;;;;;23.59;100.00;101170.19;5008123;28;20057;-66
2023/09/12 09:51:26;;;;;;;22.20;19.88;;;;;;;23.62;100.00;101165.72;5008436;28;20068;-66
2023/09/12 09:53:52;;;;;;;22.60;20.25;;;;;;;23.59;100.00;101156.97;5008013;28;20620;-66
2023/09/12 09:56:18;;;;;;;23.27;18.63;;;;;;;23.63;100.00;101159.56;5008096;28;20066;-67
2023/09/12 09:58:54;;;;;;;22.10;19.95;;;;;;;23.69;100.00;101173.56;5008258;28;20034;-67
2023/09/12 10:01:28;;;;;;;22.77;20.40;;;;;;;23.69;100.00;101171.78;5007941;28;20030;-66
2023/09/12 10:03:58;;;;;;;21.90;19.67;;;;;;;23.70;100.00;101165.59;5008047;28;20054;-67
2023/09/12 10:06:24;;;;;;;22.20;19.95;;;;;;;23.74;100.00;101172.59;5007571;28;20133;-67
2023/09/12 10:08:54;;;;;;;21.85;19.65;;;;;;;23.75;100.00;101169.03;5007608;28;20109;-67
2023/09/12 10:11:24;;;;;;;21.80;19.40;;;;;;;23.75;100.00;101168.16;5007785;28;20030;-67
2023/09/12 10:13:55;;;;;;;20.60;17.67;;;;;;;23.72;100.00;101171.75;5008082;28;20026;-67
2023/09/12 10:16:29;;;;;;;20.85;18.65;;;;;;;23.78;100.00;101160.19;5007968;28;20475;-67
2023/09/12 10:19:13;;;;;;;20.85;18.77;;;;;;;23.82;100.00;101158.31;5007570;28;20057;-67
2023/09/12 10:21:48;;;;;;;21.65;19.45;;;;;;;23.89;100.00;101157.31;5007259;28;20642;-67
2023/09/12 10:24:15;;;;;;;22.85;20.63;;;;;;;23.94;100.00;101163.41;5007951;28;20125;-66
2023/09/12 10:26:44;;;;;;;21.08;18.73;;;;;;;23.99;100.00;101169.50;5007695;28;20034;-66
2023/09/12 10:29:12;;;;;;;20.58;18.33;;;;;;;24.09;100.00;101166.63;5008236;28;20026;-67
2023/09/12 10:31:38;;;;;;;20.45;18.25;;;;;;;24.18;100.00;101163.84;5007666;28;20033;-66
2023/09/12 10:34:06;;;;;;;20.85;18.10;;;;;;;24.29;100.00;101155.69;5007535;28;20072;-67
2023/09/12 10:36:32;;;;;;;21.17;18.63;;;;;;;24.31;100.00;101151.25;5007113;28;20050;-66
2023/09/12 10:38:59;;;;;;;19.98;17.67;;;;;;;24.39;100.00;101150.19;5007399;28;20068;-67
2023/09/12 10:41:25;;;;;;;21.35;18.65;;;;;;;24.38;100.00;101154.63;5007273;28;20541;-67
2023/09/12 10:43:53;;;;;;;20.80;18.02;;;;;;;24.45;100.00;101156.22;5007204;28;20030;-67
2023/09/12 10:46:18;;;;;;;16.77;15.02;;;;;;;24.50;100.00;101155.28;5007642;28;20037;-67
2023/09/12 10:48:44;;;;;;;20.02;17.92;;;;;;;24.57;100.00;101163.03;5008243;28;20571;-66
2023/09/12 10:51:12;;;;;;;20.23;16.30;;;;;;;24.57;100.00;101157.72;5011731;28;20026;-67
2023/09/12 10:53:37;;;;;;;20.88;18.73;;;;;;;24.56;100.00;101163.06;5010901;28;20108;-67
2023/09/12 10:56:12;;;;;;;22.95;20.48;;;;;;;24.45;100.00;101158.88;5011169;28;20114;-66
2023/09/12 10:59:06;;;;;;;21.80;19.58;;;;;;;24.45;100.00;101153.59;5011359;28;20026;-67